createdAt,value
2019-03-03T00:00:52.123Z,99035.78
2019-03-03T00:03:22.655Z,99027.30
2019-03-03T00:05:57.418Z,99033.70
2019-03-03T00:08:27.812Z,99039.14
2019-03-03T00:11:01.498Z,99038.13
2019-03-03T00:13:31.825Z,99032.45
2019-03-03T00:16:02.856Z,99036.55
2019-03-03T00:18:33.465Z,99037.44
2019-03-03T00:21:04.479Z,99043.83
2019-03-03T00:23:35.390Z,99040.81
2019-03-03T00:26:06.780Z,99042.03
2019-03-03T00:28:37.552Z,99039.88
2019-03-03T00:31:09.826Z,98948.96
2019-03-03T00:33:40.687Z,99022.02
2019-03-03T00:36:11.721Z,99018.39
2019-03-03T00:39:06.613Z,99017.47
2019-03-03T00:41:59.059Z,99029.42
2019-03-03T00:44:46.046Z,99027.41
2019-03-03T00:47:33.779Z,99028.67
2019-03-03T00:50:13.449Z,99032.13
2019-03-03T00:53:11.357Z,99027.38
2019-03-03T00:56:06.628Z,99030.12
2019-03-03T00:58:58.357Z,99029.62
2019-03-03T01:01:42.597Z,99029.36
2019-03-03T01:04:26.181Z,99019.80
2019-03-03T01:07:13.545Z,99016.09
2019-03-03T01:10:14.853Z,99017.59
2019-03-03T01:13:01.845Z,99017.12
2019-03-03T01:16:06.206Z,99022.48
2019-03-03T01:19:09.979Z,99022.23
2019-03-03T01:21:57.525Z,99018.95
2019-03-03T01:25:01.911Z,99017.13
2019-03-03T01:27:32.847Z,99017.37
2019-03-03T01:30:03.129Z,99019.94
2019-03-03T01:32:33.519Z,99010.78
2019-03-03T01:35:04.074Z,99007.14
2019-03-03T01:37:34.916Z,99005.61
2019-03-03T01:40:06.169Z,99001.85
2019-03-03T01:42:36.153Z,99015.59
2019-03-03T01:45:07.081Z,99006.33
2019-03-03T01:47:37.262Z,98860.39
2019-03-03T01:50:09.349Z,99012.16
2019-03-03T01:52:39.918Z,99018.43
2019-03-03T01:55:10.626Z,99016.31
2019-03-03T01:57:40.765Z,99016.16
2019-03-03T02:00:25.213Z,99021.52
2019-03-03T02:02:57.471Z,99017.09
2019-03-03T02:05:29.453Z,99011.26
2019-03-03T02:08:00.099Z,99008.16
2019-03-03T02:10:30.814Z,99013.70
2019-03-03T02:13:01.354Z,99010.27
2019-03-03T02:15:31.955Z,99005.78
2019-03-03T02:18:02.226Z,99006.01
2019-03-03T02:23:41.280Z,99005.67
2019-03-03T02:29:18.025Z,98994.48
2019-03-03T02:31:48.084Z,98995.50
2019-03-03T02:34:18.379Z,98996.81
2019-03-03T02:42:58.790Z,98993.98
2019-03-03T02:45:29.235Z,98995.40
2019-03-03T02:47:59.273Z,98990.66
2019-03-03T02:50:29.792Z,98988.14
2019-03-03T02:53:00.057Z,98966.41
2019-03-03T02:55:30.410Z,98961.49
2019-03-03T02:58:00.413Z,98971.81
2019-03-03T03:00:31.551Z,98979.18
2019-03-03T03:03:02.400Z,98968.39
2019-03-03T03:05:49.880Z,98988.36
2019-03-03T03:08:33.419Z,98973.13
2019-03-03T03:11:22.770Z,98985.10
2019-03-03T03:14:10.213Z,98988.56
2019-03-03T03:16:55.120Z,98982.56
2019-03-03T03:19:33.857Z,98973.02
2019-03-03T03:22:31.708Z,98979.87
2019-03-03T03:25:23.375Z,98980.23
2019-03-03T03:28:10.213Z,98859.71
2019-03-03T03:30:47.789Z,98977.21
2019-03-03T03:33:37.076Z,98974.84
2019-03-03T03:36:12.053Z,98971.59
2019-03-03T03:38:54.566Z,98971.48
2019-03-03T03:41:52.292Z,98968.53
2019-03-03T03:44:43.809Z,98967.15
2019-03-03T03:47:31.216Z,98952.54
2019-03-03T03:50:15.865Z,98947.08
2019-03-03T03:53:04.790Z,98950.05
2019-03-03T03:55:58.915Z,98949.66
2019-03-03T03:58:46.557Z,98940.45
2019-03-03T04:01:35.814Z,98881.20
2019-03-03T04:04:23.374Z,98948.38
2019-03-03T04:07:07.884Z,98946.88
2019-03-03T04:09:52.356Z,98944.26
2019-03-03T04:12:33.154Z,98938.09
2019-03-03T04:15:24.362Z,98929.09
2019-03-03T04:18:06.360Z,98937.88
2019-03-03T04:20:53.801Z,98933.50
2019-03-03T04:23:48.048Z,98928.58
2019-03-03T04:26:28.852Z,98921.61
2019-03-03T04:29:17.165Z,98919.11
2019-03-03T04:32:20.056Z,98913.98
2019-03-03T04:35:05.260Z,98908.41
2019-03-03T04:37:41.777Z,98883.80
2019-03-03T04:40:19.493Z,98881.89
2019-03-03T04:43:14.695Z,98802.73
2019-03-03T04:45:51.911Z,98798.40
2019-03-03T04:48:46.786Z,98862.66
2019-03-03T04:51:34.388Z,98862.52
2019-03-03T04:54:11.808Z,98864.74
2019-03-03T04:57:10.276Z,98859.39
2019-03-03T05:00:08.023Z,98861.50
2019-03-03T05:02:57.858Z,98869.91
2019-03-03T05:05:40.041Z,98863.72
2019-03-03T05:08:27.312Z,98860.63
2019-03-03T05:11:08.282Z,98852.65
2019-03-03T05:13:45.989Z,98854.14
2019-03-03T05:16:34.860Z,98845.22
2019-03-03T05:19:27.133Z,98849.92
2019-03-03T05:21:57.077Z,98841.87
2019-03-03T05:24:33.899Z,98836.05
2019-03-03T05:26:59.181Z,98821.52
2019-03-03T05:29:29.668Z,98817.28
2019-03-03T05:31:59.859Z,98807.98
2019-03-03T05:34:29.907Z,98809.08
2019-03-03T05:37:00.106Z,98800.62
2019-03-03T05:39:30.379Z,98800.12
2019-03-03T05:42:00.300Z,98807.34
2019-03-03T05:44:30.397Z,98810.69
2019-03-03T05:47:00.906Z,98815.54
2019-03-03T05:49:30.975Z,98811.09
2019-03-03T05:52:01.070Z,98813.14
2019-03-03T05:54:31.349Z,98812.70
2019-03-03T05:57:01.726Z,98823.23
2019-03-03T05:59:31.704Z,98819.19
2019-03-03T06:02:02.022Z,98824.94
2019-03-03T06:04:32.296Z,98828.98
2019-03-03T06:07:02.277Z,98826.77
2019-03-03T06:09:32.684Z,98821.23
2019-03-03T06:12:02.901Z,98814.67
2019-03-03T06:14:34.415Z,98808.69
2019-03-03T06:17:04.703Z,98804.63
2019-03-03T06:19:35.485Z,98803.05
2019-03-03T06:22:05.622Z,98797.63
2019-03-03T06:24:35.877Z,98795.94
2019-03-03T06:27:06.071Z,98793.98
2019-03-03T06:29:36.736Z,98794.89
2019-03-03T06:32:07.039Z,98786.47
2019-03-03T06:34:37.229Z,98790.47
2019-03-03T06:37:08.086Z,98792.45
2019-03-03T06:39:39.222Z,98786.44
2019-03-03T06:42:10.055Z,98800.73
2019-03-03T06:44:43.998Z,98785.09
2019-03-03T06:47:14.282Z,98797.83
2019-03-03T06:49:57.609Z,98797.51
2019-03-03T06:52:29.039Z,98804.13
2019-03-03T06:55:01.202Z,98781.28
2019-03-03T06:57:31.542Z,98774.75
2019-03-03T07:00:06.544Z,98767.02
2019-03-03T07:02:38.347Z,98771.52
2019-03-03T07:05:13.830Z,98764.20
2019-03-03T07:07:45.065Z,98759.34
2019-03-03T07:10:21.744Z,98756.23
2019-03-03T07:12:52.950Z,98755.02
2019-03-03T07:15:23.101Z,98760.34
2019-03-03T07:17:53.346Z,98762.75
2019-03-03T07:20:23.947Z,98763.75
2019-03-03T07:22:56.014Z,98762.52
2019-03-03T07:25:26.635Z,98762.20
2019-03-03T07:28:01.122Z,98738.03
2019-03-03T07:30:31.959Z,98764.95
2019-03-03T07:33:13.176Z,98764.17
2019-03-03T07:35:43.296Z,98776.80
2019-03-03T07:38:13.993Z,98786.66
2019-03-03T07:40:44.830Z,98780.38
2019-03-03T07:43:15.648Z,98776.23
2019-03-03T07:45:46.059Z,98768.98
2019-03-03T07:48:18.806Z,98760.97
2019-03-03T07:50:49.475Z,98768.75
2019-03-03T07:53:19.959Z,98772.17
2019-03-03T07:55:50.871Z,98768.02
2019-03-03T07:58:22.757Z,98761.04
2019-03-03T08:00:53.728Z,98762.69
2019-03-03T08:03:24.405Z,98762.77
2019-03-03T08:05:55.725Z,98763.27
2019-03-03T08:08:26.863Z,98772.59
2019-03-03T08:10:57.298Z,98758.25
2019-03-03T08:13:27.578Z,98767.77
2019-03-03T08:15:59.980Z,98772.39
2019-03-03T08:18:30.635Z,98774.53
2019-03-03T08:21:00.790Z,98776.54
2019-03-03T08:23:30.861Z,98789.86
2019-03-03T08:26:01.332Z,98778.47
2019-03-03T08:28:31.557Z,98771.69
2019-03-03T08:31:03.266Z,98755.82
2019-03-03T08:33:33.859Z,98776.35
2019-03-03T08:36:06.044Z,98702.32
2019-03-03T08:38:36.128Z,98766.43
2019-03-03T08:41:06.959Z,98763.75
2019-03-03T08:44:14.051Z,98759.85
2019-03-03T08:47:05.918Z,98701.11
2019-03-03T08:49:47.172Z,98757.09
2019-03-03T08:52:40.296Z,98680.47
2019-03-03T08:55:27.758Z,98759.63
2019-03-03T08:58:15.465Z,98749.94
2019-03-03T09:01:11.455Z,98753.80
2019-03-03T09:03:55.830Z,98743.69
2019-03-03T09:06:50.919Z,98690.67
2019-03-03T09:09:39.812Z,98753.74
2019-03-03T09:12:43.247Z,98757.61
2019-03-03T09:15:36.683Z,98754.27
2019-03-03T09:18:44.772Z,98759.58
2019-03-03T09:21:40.126Z,98759.75
2019-03-03T09:24:32.702Z,98757.09
2019-03-03T09:27:27.983Z,98762.53
2019-03-03T09:30:19.542Z,98752.27
2019-03-03T09:33:14.674Z,98762.94
2019-03-03T09:36:09.890Z,98751.47
2019-03-03T09:39:14.668Z,98754.98
2019-03-03T09:41:58.608Z,98683.88
2019-03-03T09:44:54.211Z,98752.13
2019-03-03T09:47:34.495Z,98774.95
2019-03-03T09:50:21.264Z,98760.45
2019-03-03T09:53:14.524Z,98775.03
2019-03-03T09:55:57.624Z,98696.27
2019-03-03T09:58:52.126Z,98760.70
2019-03-03T10:01:51.930Z,98764.31
2019-03-03T10:04:41.543Z,98749.33
2019-03-03T10:07:37.187Z,98747.77
2019-03-03T10:10:38.722Z,98761.23
2019-03-03T10:13:15.986Z,98686.14
2019-03-03T10:16:09.257Z,98742.54
2019-03-03T10:18:52.035Z,98743.33
2019-03-03T10:21:36.650Z,98741.69
2019-03-03T10:24:18.827Z,98738.67
2019-03-03T10:27:28.093Z,98730.89
2019-03-03T10:30:41.744Z,98702.57
2019-03-03T10:33:51.153Z,98717.19
2019-03-03T10:36:40.043Z,98715.44
2019-03-03T10:39:28.001Z,98730.86
2019-03-03T10:42:19.440Z,98738.50
2019-03-03T10:45:09.045Z,98752.06
2019-03-03T10:47:58.932Z,98731.05
2019-03-03T10:50:46.789Z,98730.23
2019-03-03T10:53:34.986Z,98720.26
2019-03-03T10:56:30.052Z,98730.56
2019-03-03T10:59:20.310Z,98709.98
2019-03-03T11:02:10.200Z,98708.77
2019-03-03T11:04:57.821Z,98711.81
2019-03-03T11:08:00.117Z,98712.36
2019-03-03T11:10:57.542Z,98723.27
2019-03-03T11:14:00.145Z,98702.68
2019-03-03T11:16:48.510Z,98684.32
2019-03-03T11:19:32.364Z,98692.02
2019-03-03T11:22:32.765Z,98713.66
2019-03-03T11:25:16.346Z,98723.20
2019-03-03T11:28:23.775Z,98693.42
2019-03-03T11:31:06.758Z,98699.33
2019-03-03T11:34:01.325Z,98703.11
2019-03-03T11:36:44.979Z,98691.95
2019-03-03T11:39:35.683Z,98712.55
2019-03-03T11:42:30.173Z,98688.81
2019-03-03T11:45:19.579Z,98693.54
2019-03-03T11:48:08.891Z,98701.27
2019-03-03T11:51:11.086Z,98689.18
2019-03-03T11:54:08.630Z,98700.48
2019-03-03T11:56:59.233Z,98670.50
2019-03-03T11:59:47.397Z,98692.98
2019-03-03T12:02:53.731Z,98706.84
2019-03-03T12:05:36.429Z,98701.42
2019-03-03T12:08:25.550Z,98724.23
2019-03-03T12:11:14.959Z,98698.66
2019-03-03T12:14:07.779Z,98702.91
2019-03-03T12:17:01.751Z,98703.16
2019-03-03T12:19:54.652Z,98688.36
2019-03-03T12:22:46.081Z,98694.69
2019-03-03T12:25:41.021Z,98706.21
2019-03-03T12:28:46.038Z,98696.35
2019-03-03T12:31:33.648Z,98692.22
2019-03-03T12:34:36.774Z,98698.43
2019-03-03T12:37:17.637Z,98700.45
2019-03-03T12:40:05.641Z,98697.80
2019-03-03T12:43:01.968Z,98635.54
2019-03-03T12:45:50.250Z,98638.52
2019-03-03T12:48:51.963Z,98702.34
2019-03-03T12:51:58.523Z,98698.83
2019-03-03T12:54:45.970Z,98661.33
2019-03-03T12:57:25.051Z,98711.25
2019-03-03T13:00:24.627Z,98697.88
2019-03-03T13:03:09.979Z,98686.66
2019-03-03T13:05:57.489Z,98686.94
2019-03-03T13:08:59.804Z,98691.06
2019-03-03T13:12:05.991Z,98672.41
2019-03-03T13:14:43.780Z,98670.84
2019-03-03T13:17:37.899Z,98670.17
2019-03-03T13:20:39.834Z,98666.47
2019-03-03T13:23:31.561Z,98654.20
2019-03-03T13:26:33.797Z,98663.55
2019-03-03T13:29:25.991Z,98670.55
2019-03-03T13:32:16.265Z,98661.73
2019-03-03T13:37:37.605Z,98658.27
2019-03-03T13:40:33.861Z,98667.76
2019-03-03T13:43:05.064Z,98653.30
2019-03-03T13:45:36.687Z,98651.72
2019-03-03T13:48:09.541Z,98663.80
2019-03-03T13:50:41.741Z,98639.90
2019-03-03T13:53:14.383Z,98640.55
2019-03-03T13:55:45.326Z,98651.79
2019-03-03T13:58:17.135Z,98638.48
2019-03-03T14:00:50.734Z,98631.39
2019-03-03T14:03:21.704Z,98619.70
2019-03-03T14:05:54.164Z,98618.11
2019-03-03T14:08:24.974Z,98620.53
2019-03-03T14:10:55.832Z,98618.99
2019-03-03T14:13:27.443Z,98540.45
2019-03-03T14:15:57.843Z,98605.98
2019-03-03T14:18:29.465Z,98606.25
2019-03-03T14:21:03.105Z,98597.22
2019-03-03T14:23:34.795Z,98603.31
2019-03-03T14:26:05.419Z,98600.88
2019-03-03T14:28:43.205Z,98601.27
2019-03-03T14:31:13.898Z,98614.16
2019-03-03T14:33:44.555Z,98599.86
2019-03-03T14:36:16.849Z,98597.63
2019-03-03T14:38:50.431Z,98599.34
2019-03-03T14:41:20.840Z,98605.09
2019-03-03T14:43:52.956Z,98595.62
2019-03-03T14:46:24.104Z,98584.17
2019-03-03T14:48:58.838Z,98590.49
2019-03-03T14:51:32.964Z,98585.83
2019-03-03T14:54:08.986Z,98583.42
2019-03-03T14:56:40.211Z,98581.29
2019-03-03T14:59:13.644Z,98575.25
2019-03-03T15:01:44.783Z,98571.06
2019-03-03T15:04:14.893Z,98559.26
2019-03-03T15:06:45.061Z,98561.69
2019-03-03T15:09:21.558Z,98554.58
2019-03-03T15:11:52.038Z,98560.05
2019-03-03T15:14:27.760Z,98555.83
2019-03-03T15:16:58.714Z,98551.63
2019-03-03T15:19:29.771Z,98548.12
2019-03-03T15:22:00.384Z,98544.03
2019-03-03T15:24:34.149Z,98534.53
2019-03-03T15:27:04.614Z,98540.66
2019-03-03T15:29:35.969Z,98528.77
2019-03-03T15:32:07.101Z,98527.16
2019-03-03T15:34:37.844Z,98521.31
2019-03-03T15:37:14.550Z,98515.77
2019-03-03T15:39:46.074Z,98512.81
2019-03-03T15:42:17.526Z,98516.79
2019-03-03T15:44:47.967Z,98513.59
2019-03-03T15:47:20.655Z,98511.77
2019-03-03T15:49:51.484Z,98506.73
2019-03-03T15:52:22.197Z,98507.41
2019-03-03T15:55:04.819Z,98520.41
2019-03-03T15:57:34.928Z,98509.96
2019-03-03T16:00:08.068Z,98520.94
2019-03-03T16:02:38.613Z,98522.58
2019-03-03T16:05:14.056Z,98534.73
2019-03-03T16:07:44.490Z,98532.24
2019-03-03T16:10:15.258Z,98526.30
2019-03-03T16:12:45.764Z,98517.89
2019-03-03T16:15:18.091Z,98499.73
2019-03-03T16:17:48.951Z,98515.80
2019-03-03T16:20:20.655Z,98515.85
2019-03-03T16:22:50.958Z,98517.22
2019-03-03T16:25:21.552Z,98516.75
2019-03-03T16:27:55.869Z,98514.67
2019-03-03T16:30:26.965Z,98439.81
2019-03-03T16:32:57.984Z,98508.02
2019-03-03T16:35:33.185Z,98493.86
2019-03-03T16:38:04.559Z,98504.91
2019-03-03T16:40:39.533Z,98489.60
2019-03-03T16:43:07.750Z,98392.87
2019-03-03T16:45:38.753Z,98485.59
2019-03-03T16:48:09.418Z,98417.54
2019-03-03T16:50:39.773Z,98499.69
2019-03-03T16:53:11.262Z,98488.94
2019-03-03T16:55:42.041Z,98494.15
2019-03-03T16:58:12.352Z,98508.19
2019-03-03T17:00:43.970Z,98503.68
2019-03-03T17:03:17.031Z,98494.98
2019-03-03T17:05:47.059Z,98505.03
2019-03-03T17:08:17.845Z,98505.75
2019-03-03T17:10:54.991Z,98510.61
2019-03-03T17:13:29.330Z,98378.09
2019-03-03T17:15:59.996Z,98507.42
2019-03-03T17:18:31.116Z,98525.92
2019-03-03T17:21:04.705Z,98515.71
2019-03-03T17:23:35.487Z,98515.19
2019-03-03T17:26:06.124Z,98507.81
2019-03-03T17:28:37.027Z,98510.65
2019-03-03T17:31:08.781Z,98509.13
2019-03-03T17:33:39.458Z,98504.00
2019-03-03T17:36:12.108Z,98432.36
2019-03-03T17:38:43.059Z,98500.05
2019-03-03T17:41:13.860Z,98496.18
2019-03-03T17:43:45.801Z,98498.57
2019-03-03T17:46:16.167Z,98487.53
2019-03-03T17:48:47.747Z,98483.58
2019-03-03T17:51:18.703Z,98476.77
2019-03-03T17:53:49.033Z,98480.78
2019-03-03T17:56:19.185Z,98416.53
2019-03-03T17:58:53.073Z,98471.53
2019-03-03T18:01:24.260Z,98461.46
2019-03-03T18:03:55.528Z,98458.77
2019-03-03T18:06:38.358Z,98444.09
2019-03-03T18:09:02.584Z,98433.53
2019-03-03T18:11:32.885Z,98439.10
2019-03-03T18:14:03.369Z,98434.15
2019-03-03T18:16:33.671Z,98420.63
2019-03-03T18:19:09.200Z,98408.72
2019-03-03T18:21:39.331Z,98407.85
2019-03-03T18:24:10.670Z,98393.70
2019-03-03T18:26:41.963Z,98387.71
2019-03-03T18:29:12.306Z,98379.82
2019-03-03T18:31:42.959Z,98362.36
2019-03-03T18:34:13.829Z,98392.42
2019-03-03T18:36:43.999Z,98399.58
2019-03-03T18:39:19.594Z,98395.08
2019-03-03T18:41:51.663Z,98389.55
2019-03-03T18:44:24.947Z,98391.66
2019-03-03T18:46:57.613Z,98390.76
2019-03-03T18:49:28.893Z,98315.63
2019-03-03T18:51:59.918Z,98377.80
2019-03-03T18:54:31.013Z,98385.42
2019-03-03T18:57:04.956Z,98391.97
2019-03-03T18:59:39.050Z,98398.75
2019-03-03T19:02:09.619Z,98386.54
2019-03-03T19:04:40.147Z,98387.98
2019-03-03T19:07:10.389Z,98390.03
2019-03-03T19:09:42.360Z,98390.13
2019-03-03T19:12:16.179Z,98385.87
2019-03-03T19:14:46.329Z,98381.66
2019-03-03T19:17:18.722Z,98377.25
2019-03-03T19:19:49.068Z,98379.94
2019-03-03T19:22:19.558Z,98372.27
2019-03-03T19:24:49.708Z,98366.45
2019-03-03T19:27:20.890Z,98365.38
2019-03-03T19:29:53.453Z,98361.13
2019-03-03T19:32:24.043Z,98355.02
2019-03-03T19:34:55.450Z,98348.75
2019-03-03T19:37:27.732Z,98345.36
2019-03-03T19:39:59.904Z,98342.70
2019-03-03T19:42:30.882Z,98341.16
2019-03-03T19:45:02.211Z,98341.08
2019-03-03T19:47:33.757Z,98263.56
2019-03-03T19:50:12.094Z,98339.42
2019-03-03T19:52:42.707Z,98332.36
2019-03-03T19:55:15.069Z,98332.87
2019-03-03T19:57:47.563Z,98331.35
2019-03-03T20:00:20.593Z,98334.25
2019-03-03T20:03:00.670Z,98328.02
2019-03-03T20:05:31.065Z,98326.09
2019-03-03T20:08:15.437Z,98330.61
2019-03-03T20:10:46.811Z,98329.00
2019-03-03T20:13:17.261Z,98321.56
2019-03-03T20:15:47.683Z,98312.30
2019-03-03T20:18:18.422Z,98311.02
2019-03-03T20:20:50.865Z,98312.97
2019-03-03T20:23:20.940Z,98302.20
2019-03-03T20:26:00.651Z,98306.70
2019-03-03T20:28:30.522Z,98292.20
2019-03-03T20:31:03.611Z,98296.95
2019-03-03T20:33:33.955Z,98286.70
2019-03-03T20:36:04.793Z,98277.47
2019-03-03T20:38:35.939Z,98268.95
2019-03-03T20:41:06.321Z,98265.26
2019-03-03T20:43:36.491Z,98261.31
2019-03-03T20:46:08.678Z,98264.41
2019-03-03T20:48:38.915Z,98265.94
2019-03-03T20:51:09.244Z,98260.41
2019-03-03T20:53:39.187Z,98260.64
2019-03-03T20:56:09.509Z,98253.28
2019-03-03T20:58:39.594Z,98241.39
2019-03-03T21:01:09.888Z,98237.14
2019-03-03T21:03:39.911Z,98229.30
2019-03-03T21:06:11.176Z,98229.23
2019-03-03T21:08:41.291Z,98233.48
2019-03-03T21:11:11.864Z,98241.61
2019-03-03T21:13:42.306Z,98229.16
2019-03-03T21:16:12.636Z,98236.50
2019-03-03T21:18:42.810Z,98228.34
2019-03-03T21:21:12.786Z,98220.52
2019-03-03T21:23:42.979Z,98222.39
2019-03-03T21:26:14.259Z,98213.44
2019-03-03T21:28:48.933Z,98216.66
2019-03-03T21:31:20.888Z,98210.95
2019-03-03T21:33:51.018Z,98203.53
2019-03-03T21:36:21.152Z,98207.05
2019-03-03T21:38:51.377Z,98198.95
2019-03-03T21:41:23.563Z,98195.30
2019-03-03T21:43:54.203Z,98127.67
2019-03-03T21:46:23.466Z,98192.91
2019-03-03T21:48:54.328Z,98195.02
2019-03-03T21:51:24.932Z,98203.20
2019-03-03T21:53:56.532Z,98197.95
2019-03-03T21:56:28.421Z,98189.00
2019-03-03T21:58:58.610Z,98189.52
2019-03-03T22:01:28.621Z,98103.45
2019-03-03T22:03:58.616Z,98184.90
2019-03-03T22:06:28.641Z,98173.91
2019-03-03T22:08:58.712Z,98175.19
2019-03-03T22:11:30.113Z,98178.09
2019-03-03T22:14:00.035Z,98102.38
2019-03-03T22:16:30.091Z,98178.64
2019-03-03T22:19:00.477Z,98164.93
2019-03-03T22:21:29.658Z,98159.16
2019-03-03T22:23:59.787Z,98155.47
2019-03-03T22:26:30.198Z,98154.05
2019-03-03T22:29:14.336Z,98151.12
2019-03-03T22:31:44.399Z,98074.30
2019-03-03T22:34:14.718Z,98152.64
2019-03-03T22:36:44.936Z,98140.30
2019-03-03T22:39:15.766Z,98127.59
2019-03-03T22:41:45.768Z,98130.22
2019-03-03T22:44:16.256Z,98129.18
2019-03-03T22:46:46.374Z,98121.83
2019-03-03T22:49:16.450Z,98105.32
2019-03-03T22:51:46.324Z,98102.21
2019-03-03T22:54:16.192Z,98099.10
2019-03-03T22:56:46.242Z,98101.17
2019-03-03T22:59:16.202Z,98098.65
2019-03-03T23:01:47.416Z,98091.29
2019-03-03T23:04:41.406Z,98080.55
2019-03-03T23:07:41.587Z,98081.36
2019-03-03T23:10:36.398Z,98069.47
2019-03-03T23:13:59.338Z,98069.28
2019-03-03T23:17:15.468Z,98075.02
2019-03-03T23:20:17.109Z,98072.39
2019-03-03T23:23:28.568Z,98074.31
2019-03-03T23:25:58.628Z,98050.16
2019-03-03T23:28:28.759Z,98071.33
2019-03-03T23:31:00.268Z,98059.30
2019-03-03T23:33:30.338Z,98057.13
2019-03-03T23:36:00.310Z,98049.89
2019-03-03T23:38:30.209Z,98049.04
2019-03-03T23:41:00.669Z,98034.41
2019-03-03T23:43:30.543Z,98033.73
2019-03-03T23:46:01.690Z,98025.44
2019-03-03T23:48:32.066Z,98025.49
2019-03-03T23:51:03.195Z,98030.91
2019-03-03T23:53:33.163Z,98044.34
2019-03-03T23:56:03.090Z,98035.99
2019-03-03T23:58:33.056Z,98034.45
